Time;durP1;ratioP1;P1;durP2;ratioP2;P2;SDS_P1;SDS_P2;PMS_P1;PMS_P2;Temp;Humidity;BMP_temperature;BMP_pressure;BME280_temperature;BME280_humidity;BME280_pressure;Samples;Min_cycle;Max_cycle;Signal;HPM_P1;HPM_P2
2023/03/10 00:02:27;;;;;;;0.80;0.80;;;;;;;4.20;100.00;98660.66;5023221;28;20061;-66
2023/03/10 00:04:53;;;;;;;0.90;0.90;;;;;;;4.01;100.00;98651.91;5034567;28;20030;-65
2023/03/10 00:07:19;;;;;;;0.80;0.80;;;;;;;3.93;100.00;98672.09;5012744;28;20346;-63
2023/03/10 00:09:44;;;;;;;0.90;0.90;;;;;;;3.90;100.00;98665.28;5024677;28;20468;-65
2023/03/10 00:12:10;;;;;;;0.85;0.85;;;;;;;3.89;100.00;98668.22;5027798;28;20037;-63
2023/03/10 00:14:35;;;;;;;0.90;0.90;;;;;;;3.89;100.00;98676.34;5047054;28;20024;-62
2023/03/10 00:17:01;;;;;;;0.80;0.80;;;;;;;3.89;100.00;98676.34;5032831;28;20037;-64
2023/03/10 00:19:26;;;;;;;0.80;0.80;;;;;;;3.91;100.00;98676.97;5047171;28;20029;-66
2023/03/10 00:21:52;;;;;;;0.90;0.90;;;;;;;3.92;100.00;98667.75;5047477;28;20020;-64
2023/03/10 00:24:18;;;;;;;0.85;0.85;;;;;;;3.94;100.00;98668.31;5064263;28;20055;-64
2023/03/10 00:26:44;;;;;;;0.90;0.90;;;;;;;3.95;100.00;98675.41;5034908;28;20122;-61
2023/03/10 00:29:11;;;;;;;0.90;0.90;;;;;;;3.99;100.00;98673.84;5012154;28;20496;-65
2023/03/10 00:31:37;;;;;;;0.80;0.80;;;;;;;4.02;100.00;98672.56;5046086;28;20025;-66
2023/03/10 00:34:03;;;;;;;0.90;0.90;;;;;;;4.04;100.00;98668.53;5046748;28;20702;-66
2023/03/10 00:36:30;;;;;;;0.90;0.90;;;;;;;4.04;100.00;98664.97;5031050;28;20171;-65
2023/03/10 00:38:56;;;;;;;0.90;0.90;;;;;;;4.04;100.00;98657.66;5044756;28;20070;-66
2023/03/10 00:41:25;;;;;;;0.80;0.80;;;;;;;4.06;100.00;98660.16;5045356;28;20036;-61
2023/03/10 00:43:51;;;;;;;0.80;0.80;;;;;;;4.07;100.00;98659.91;5012359;28;20017;-64
2023/03/10 00:46:16;;;;;;;0.90;0.90;;;;;;;4.08;100.00;98660.72;5034172;28;20033;-65
2023/03/10 00:48:42;;;;;;;0.77;0.77;;;;;;;4.09;100.00;98662.38;5044974;28;20095;-65
2023/03/10 00:51:08;;;;;;;0.90;0.90;;;;;;;4.09;100.00;98665.91;5047175;28;20036;-64
2023/03/10 00:53:38;;;;;;;0.80;0.80;;;;;;;4.11;100.00;98671.94;5027835;28;20071;-65
2023/03/10 00:56:07;;;;;;;0.90;0.90;;;;;;;4.13;100.00;98677.94;5027034;28;20017;-66
2023/03/10 00:58:33;;;;;;;;;;;;;;;4.21;100.00;98670.44;5026749;28;20031;-64
2023/03/10 01:00:58;;;;;;;0.95;0.95;;;;;;;4.14;100.00;98674.16;5027813;28;19940;-65
2023/03/10 01:03:25;;;;;;;1.00;1.00;;;;;;;4.14;100.00;98678.75;5042212;28;20464;-65
2023/03/10 01:05:50;;;;;;;0.90;0.90;;;;;;;4.15;100.00;98673.06;5046306;28;20419;-65
2023/03/10 01:08:16;;;;;;;0.90;0.90;;;;;;;4.14;100.00;98668.72;5033933;28;20032;-64
2023/03/10 01:10:42;;;;;;;1.00;1.00;;;;;;;4.16;100.00;98672.03;5041086;28;20037;-65
2023/03/10 01:13:10;;;;;;;0.90;0.90;;;;;;;4.20;100.00;98672.34;5047282;28;20067;-66
2023/03/10 01:15:35;;;;;;;0.90;0.90;;;;;;;4.22;100.00;98674.84;5047818;28;20033;-63
2023/03/10 01:18:02;;;;;;;0.90;0.90;;;;;;;4.25;100.00;98663.47;5043444;28;20023;-66
2023/03/10 01:20:29;;;;;;;0.90;0.90;;;;;;;4.26;100.00;98654.25;5041468;28;20029;-63
2023/03/10 01:22:54;;;;;;;1.00;1.00;;;;;;;4.29;100.00;98659.22;5027368;28;20030;-65
2023/03/10 01:25:20;;;;;;;0.90;0.90;;;;;;;4.29;100.00;98651.88;5012909;28;20369;-62
2023/03/10 01:27:45;;;;;;;0.90;0.90;;;;;;;4.31;100.00;98647.03;5019432;28;20029;-65
2023/03/10 01:30:11;;;;;;;0.90;0.90;;;;;;;4.32;100.00;98648.69;5046642;28;20131;-65
2023/03/10 01:32:37;;;;;;;1.00;1.00;;;;;;;4.33;100.00;98650.31;5039663;28;20488;-62
2023/03/10 01:35:04;;;;;;;0.90;0.90;;;;;;;4.35;100.00;98648.19;5031658;28;20060;-64
2023/03/10 01:37:29;;;;;;;0.90;0.90;;;;;;;4.38;100.00;98649.59;5037176;28;20036;-65
2023/03/10 01:39:54;;;;;;;0.80;0.80;;;;;;;4.38;100.00;98642.25;5038846;28;20021;-66
2023/03/10 01:42:20;;;;;;;0.80;0.80;;;;;;;4.41;100.00;98646.41;5035576;28;20427;-66
2023/03/10 01:45:07;;;;;;;0.82;0.82;;;;;;;4.45;100.00;98639.38;5032391;28;20061;-66
2023/03/10 01:47:32;;;;;;;0.90;0.90;;;;;;;4.44;100.00;98632.31;5035172;28;20396;-66
2023/03/10 01:49:57;;;;;;;0.80;0.80;;;;;;;4.46;100.00;98635.63;5045952;28;20028;-65
2023/03/10 01:52:27;;;;;;;0.88;0.88;;;;;;;4.48;100.00;98632.66;5035893;28;20025;-66
2023/03/10 01:55:18;;;;;;;0.90;0.90;;;;;;;4.52;100.00;98625.66;5032571;28;20032;-66
2023/03/10 02:15:28;;;;;;;0.90;0.90;;;;;;;4.55;100.00;98628.69;5026396;28;20458;-66
2023/03/10 02:17:54;;;;;;;0.80;0.80;;;;;;;4.54;100.00;98621.59;5019419;28;20698;-62
2023/03/10 02:20:34;;;;;;;0.90;0.90;;;;;;;4.57;100.00;98612.97;5035800;28;20113;-66
2023/03/10 02:23:00;;;;;;;0.85;0.85;;;;;;;4.58;100.00;98619.22;5017801;28;20021;-66
2023/03/10 02:25:45;;;;;;;0.90;0.90;;;;;;;4.62;100.00;98609.50;5025034;28;20039;-64
2023/03/10 02:28:10;;;;;;;1.00;1.00;;;;;;;4.65;100.00;98609.00;5026959;28;20030;-66
2023/03/10 02:30:43;;;;;;;0.98;0.98;;;;;;;4.68;100.00;98608.53;5028184;28;20490;-66
2023/03/10 02:33:13;;;;;;;1.00;1.00;;;;;;;4.69;100.00;98593.84;5036210;28;20643;-66
2023/03/10 02:35:38;;;;;;;0.90;0.90;;;;;;;4.69;100.00;98596.56;5049309;28;20040;-66
2023/03/10 02:38:04;;;;;;;1.45;1.35;;;;;;;4.70;100.00;98584.63;5049022;28;20049;-66
2023/03/10 02:40:39;;;;;;;0.85;0.85;;;;;;;4.74;100.00;98584.94;5048761;28;20025;-63
2023/03/10 02:43:22;;;;;;;1.00;1.00;;;;;;;4.76;100.00;98586.34;5080215;22;20065;-63
2023/03/10 02:45:49;;;;;;;1.00;1.00;;;;;;;4.75;100.00;98581.97;5020935;28;20537;-62
2023/03/10 02:48:23;;;;;;;0.90;0.90;;;;;;;4.74;100.00;98576.78;5028606;28;20120;-63
2023/03/10 02:50:50;;;;;;;0.90;0.90;;;;;;;4.69;100.00;98567.47;5029511;28;20112;-62
2023/03/10 02:53:18;;;;;;;0.82;0.82;;;;;;;4.66;100.00;98565.28;5029820;28;20040;-62
2023/03/10 02:55:43;;;;;;;0.90;0.90;;;;;;;4.66;100.00;98564.44;5029758;28;20148;-63
2023/03/10 02:58:10;;;;;;;0.80;0.80;;;;;;;4.61;100.00;98564.34;5029869;28;20523;-63
2023/03/10 03:00:41;;;;;;;0.90;0.90;;;;;;;4.60;100.00;98568.97;5029127;28;20184;-62
2023/03/10 03:03:07;;;;;;;0.90;0.90;;;;;;;4.61;100.00;98569.78;5028559;28;20079;-60
2023/03/10 03:05:32;;;;;;;0.85;0.85;;;;;;;4.62;100.00;98569.56;5028999;28;20037;-64
2023/03/10 03:07:58;;;;;;;0.80;0.80;;;;;;;4.60;100.00;98560.81;5029870;28;20035;-61
2023/03/10 03:10:23;;;;;;;1.00;1.00;;;;;;;4.60;100.00;98552.66;5029008;28;20069;-65
2023/03/10 03:12:50;;;;;;;0.82;0.82;;;;;;;4.61;100.00;98548.88;5028195;28;20068;-65
2023/03/10 03:15:16;;;;;;;1.00;1.00;;;;;;;4.63;100.00;98549.44;5029984;28;20045;-61
2023/03/10 03:17:41;;;;;;;1.00;1.00;;;;;;;4.62;100.00;98553.25;5028549;28;20037;-65
2023/03/10 03:20:12;;;;;;;0.90;0.90;;;;;;;4.61;100.00;98548.88;5028565;28;20369;-66
2023/03/10 03:22:38;;;;;;;0.90;0.90;;;;;;;4.58;100.00;98543.13;5027177;28;20033;-60
2023/03/10 03:25:04;;;;;;;0.90;0.90;;;;;;;4.53;100.00;98549.28;5017112;28;20037;-64
2023/03/10 03:27:29;;;;;;;0.80;0.80;;;;;;;4.46;100.00;98550.50;5023516;28;20026;-64
2023/03/10 03:29:55;;;;;;;0.80;0.80;;;;;;;4.40;100.00;98541.47;5028856;28;20025;-65
2023/03/10 03:32:20;;;;;;;0.80;0.80;;;;;;;4.40;100.00;98552.31;5028730;28;20029;-61
2023/03/10 03:34:45;;;;;;;0.93;0.93;;;;;;;4.39;100.00;98551.50;5028496;28;20079;-64
2023/03/10 03:37:10;;;;;;;0.82;0.82;;;;;;;4.39;100.00;98548.78;5028804;28;20328;-65
2023/03/10 03:39:36;;;;;;;0.82;0.82;;;;;;;4.36;100.00;98543.88;5029072;28;20507;-65
2023/03/10 03:42:01;;;;;;;0.80;0.80;;;;;;;4.33;100.00;98559.84;5026574;28;20117;-63
2023/03/10 03:44:26;;;;;;;0.90;0.90;;;;;;;4.30;100.00;98552.16;5029420;28;20046;-63
2023/03/10 03:46:52;;;;;;;0.90;0.90;;;;;;;4.26;100.00;98548.28;5027700;28;20484;-66
2023/03/10 03:49:17;;;;;;;0.90;0.90;;;;;;;4.27;100.00;98547.25;5016736;28;20109;-67
2023/03/10 03:51:42;;;;;;;0.90;0.90;;;;;;;4.28;100.00;98546.16;5012858;28;20087;-65
2023/03/10 03:54:07;;;;;;;0.90;0.90;;;;;;;4.29;100.00;98550.53;5028898;28;20383;-61
2023/03/10 03:56:33;;;;;;;1.00;1.00;;;;;;;4.29;100.00;98537.75;5026167;28;20033;-64
2023/03/10 03:58:58;;;;;;;0.90;0.90;;;;;;;4.34;100.00;98545.16;5028603;28;20365;-65
2023/03/10 04:01:23;;;;;;;1.05;0.95;;;;;;;4.36;100.00;98535.72;5028239;28;20079;-65
2023/03/10 04:03:49;;;;;;;1.00;0.90;;;;;;;4.41;100.00;98540.41;5026936;28;20026;-62
2023/03/10 04:06:14;;;;;;;0.80;0.80;;;;;;;4.45;100.00;98529.84;5028334;28;20072;-66
2023/03/10 04:08:40;;;;;;;0.90;0.90;;;;;;;4.48;100.00;98532.09;5027854;28;20029;-66
2023/03/10 04:11:06;;;;;;;0.90;0.90;;;;;;;4.51;100.00;98534.28;5027363;28;20041;-63
2023/03/10 04:13:31;;;;;;;0.80;0.80;;;;;;;4.54;100.00;98531.91;5027230;28;20055;-60
2023/03/10 04:15:58;;;;;;;1.00;1.00;;;;;;;4.72;100.00;98532.72;5028302;28;20457;-66
2023/03/10 04:18:24;;;;;;;0.90;0.90;;;;;;;4.77;100.00;98525.47;5025884;28;20075;-66
2023/03/10 04:20:49;;;;;;;0.90;0.90;;;;;;;4.79;100.00;98533.38;5027872;28;20109;-65
2023/03/10 04:23:15;;;;;;;0.90;0.90;;;;;;;5.11;100.00;98526.19;5028584;28;20488;-66
2023/03/10 04:25:42;;;;;;;0.90;0.90;;;;;;;5.27;100.00;98520.94;5027453;28;20483;-65
2023/03/10 04:28:08;;;;;;;1.10;1.00;;;;;;;5.82;100.00;98511.75;5026241;28;20086;-62
2023/03/10 04:30:33;;;;;;;1.00;1.00;;;;;;;6.09;100.00;98519.97;5027185;28;20689;-65
2023/03/10 04:32:59;;;;;;;1.00;1.00;;;;;;;6.36;100.00;98517.19;5026967;28;20031;-65
2023/03/10 04:35:25;;;;;;;1.20;1.10;;;;;;;6.49;100.00;98514.03;5028456;28;20118;-65
2023/03/10 04:37:51;;;;;;;1.00;1.00;;;;;;;6.55;100.00;98515.72;5021206;28;21039;-66
2023/03/10 04:40:16;;;;;;;1.00;1.00;;;;;;;6.75;100.00;98513.13;5013106;28;20048;-61
2023/03/10 04:42:41;;;;;;;0.85;0.85;;;;;;;6.89;100.00;98507.19;5026827;28;20049;-66
2023/03/10 04:45:07;;;;;;;1.10;1.00;;;;;;;6.93;100.00;98511.03;5027913;28;20025;-66
2023/03/10 04:47:33;;;;;;;1.05;0.98;;;;;;;7.02;100.00;98498.53;5026684;28;20452;-64
2023/03/10 04:49:58;;;;;;;1.00;1.00;;;;;;;7.02;100.00;98498.53;5028581;28;20102;-64
2023/03/10 04:52:23;;;;;;;1.10;1.00;;;;;;;7.07;100.00;98497.75;5027345;28;20056;-67
2023/03/10 04:54:48;;;;;;;1.10;1.00;;;;;;;6.99;100.00;98501.78;5027312;28;20488;-66
2023/03/10 04:57:15;;;;;;;1.20;1.10;;;;;;;6.98;100.00;98505.59;5026543;28;20036;-65
2023/03/10 04:59:40;;;;;;;1.10;1.00;;;;;;;7.03;100.00;98491.97;5026775;28;20384;-66
2023/03/10 05:02:05;;;;;;;1.10;1.00;;;;;;;7.07;100.00;98495.00;5026780;28;20033;-66
2023/03/10 05:04:31;;;;;;;1.10;1.00;;;;;;;7.04;100.00;98493.63;5024648;28;20044;-65
2023/03/10 05:06:56;;;;;;;1.17;1.00;;;;;;;7.03;100.00;98498.25;5012425;28;20378;-63
2023/03/10 05:09:21;;;;;;;1.20;1.00;;;;;;;7.07;100.00;98497.75;5007913;28;20026;-66
2023/03/10 05:11:47;;;;;;;1.05;0.95;;;;;;;7.11;100.00;98490.66;5024221;28;20096;-66
2023/03/10 05:14:16;;;;;;;0.95;0.90;;;;;;;7.08;100.00;98489.28;5027732;28;20017;-67
2023/03/10 05:16:41;;;;;;;1.27;1.08;;;;;;;7.11;100.00;98496.13;5026388;28;20029;-65
2023/03/10 05:19:07;;;;;;;1.17;0.98;;;;;;;7.13;100.00;98494.75;5024453;28;20033;-65
2023/03/10 05:21:32;;;;;;;1.20;0.95;;;;;;;7.17;100.00;98492.34;5025010;28;20025;-64
2023/03/10 05:23:58;;;;;;;0.80;0.80;;;;;;;7.19;100.00;98488.22;5027695;28;20455;-65
2023/03/10 05:26:23;;;;;;;1.60;0.90;;;;;;;7.26;100.00;98488.81;5026318;28;20056;-66
2023/03/10 05:28:49;;;;;;;1.08;0.90;;;;;;;7.25;100.00;98491.84;5026583;28;20040;-64
2023/03/10 05:31:15;;;;;;;1.10;1.00;;;;;;;7.20;100.00;98489.91;5026350;28;20029;-61
2023/03/10 05:33:41;;;;;;;0.80;0.80;;;;;;;7.15;100.00;98486.31;5025654;28;20021;-66
2023/03/10 05:36:08;;;;;;;1.15;1.00;;;;;;;7.15;100.00;98494.50;5027173;28;20104;-65
2023/03/10 05:38:35;;;;;;;1.13;1.00;;;;;;;7.14;100.00;98499.13;5024360;28;20025;-62
2023/03/10 05:41:01;;;;;;;1.30;1.00;;;;;;;7.18;100.00;98494.78;5025865;28;20372;-66
2023/03/10 05:43:26;;;;;;;1.17;0.93;;;;;;;7.19;100.00;98496.41;5026948;28;20065;-61
2023/03/10 05:45:56;;;;;;;1.25;0.90;;;;;;;7.19;100.00;98499.16;5042490;28;20041;-65
2023/03/10 05:48:21;;;;;;;1.33;0.90;;;;;;;7.21;100.00;98493.44;5031287;28;20068;-64
2023/03/10 05:51:05;;;;;;;0.93;0.90;;;;;;;7.20;100.00;98506.28;5026390;28;20061;-65
2023/03/10 05:53:33;;;;;;;1.30;0.93;;;;;;;7.20;100.00;98509.00;5024007;28;20426;-62
2023/03/10 05:55:59;;;;;;;0.90;0.90;;;;;;;7.21;100.00;98509.81;5026373;28;20057;-61
2023/03/10 05:58:25;;;;;;;1.38;1.00;;;;;;;7.24;100.00;98507.34;5024965;28;20053;-64
2023/03/10 06:00:51;;;;;;;0.82;0.80;;;;;;;7.29;100.00;98496.47;5023291;28;20079;-65
2023/03/10 06:03:17;;;;;;;1.27;1.00;;;;;;;7.28;100.00;98486.63;5025080;28;20037;-65
2023/03/10 06:05:43;;;;;;;0.85;0.80;;;;;;;7.31;100.00;98498.13;5025565;28;20025;-66
2023/03/10 06:08:08;;;;;;;1.70;1.10;;;;;;;7.34;100.00;98500.31;5027916;28;20037;-64
2023/03/10 06:10:33;;;;;;;1.10;1.00;;;;;;;7.34;100.00;98492.94;5029680;28;20026;-65
2023/03/10 06:12:59;;;;;;;1.33;1.00;;;;;;;7.35;100.00;98493.75;5029887;28;20025;-66
2023/03/10 06:15:24;;;;;;;1.02;0.90;;;;;;;7.33;100.00;98496.75;5030038;28;20408;-66
2023/03/10 06:17:49;;;;;;;1.08;0.90;;;;;;;7.36;100.00;98496.25;5027207;28;20042;-64
2023/03/10 06:20:15;;;;;;;1.42;1.10;;;;;;;7.38;100.00;98510.44;5028919;28;20090;-66
2023/03/10 06:22:40;;;;;;;1.15;1.00;;;;;;;7.40;100.00;98512.88;5027282;28;20026;-66
2023/03/10 06:25:06;;;;;;;1.10;0.90;;;;;;;7.42;100.00;98508.00;5029304;28;20069;-66
2023/03/10 06:27:32;;;;;;;1.30;1.00;;;;;;;7.47;100.00;98508.00;5027983;28;20526;-66
2023/03/10 06:29:58;;;;;;;1.33;1.02;;;;;;;7.47;100.00;98508.84;5024053;28;20041;-66
2023/03/10 06:32:23;;;;;;;1.67;1.15;;;;;;;7.48;100.00;98512.38;5026310;28;20136;-64
2023/03/10 06:34:48;;;;;;;1.20;1.00;;;;;;;7.51;100.00;98509.94;5028696;28;20029;-66
2023/03/10 06:37:13;;;;;;;1.08;0.98;;;;;;;7.50;100.00;98516.50;5028388;28;20410;-65
2023/03/10 06:39:39;;;;;;;1.00;0.93;;;;;;;7.50;100.00;98521.13;5028925;28;20041;-66
2023/03/10 06:42:05;;;;;;;1.00;0.90;;;;;;;7.53;100.00;98521.41;5027964;28;20078;-60
2023/03/10 06:44:32;;;;;;;0.98;0.90;;;;;;;7.57;100.00;98518.16;5029612;28;20060;-63
2023/03/10 06:46:57;;;;;;;1.13;1.00;;;;;;;7.57;100.00;98526.34;5024007;28;20033;-66
2023/03/10 06:49:27;;;;;;;1.10;0.90;;;;;;;7.61;100.00;98525.56;5028460;28;20029;-65
2023/03/10 06:51:52;;;;;;;0.80;0.80;;;;;;;7.62;100.00;98529.91;5027649;28;20021;-64
2023/03/10 06:54:18;;;;;;;1.00;0.90;;;;;;;7.65;100.00;98534.81;5028763;28;20021;-66
2023/03/10 06:56:43;;;;;;;1.05;0.95;;;;;;;7.68;100.00;98530.75;5028087;28;20029;-67
2023/03/10 06:59:08;;;;;;;1.13;0.98;;;;;;;7.68;100.00;98536.22;5028745;28;20026;-66
2023/03/10 07:01:34;;;;;;;0.88;0.80;;;;;;;7.63;100.00;98525.28;5027494;28;20029;-66
2023/03/10 07:04:00;;;;;;;1.00;0.90;;;;;;;7.62;100.00;98521.72;5020089;28;20021;-60
2023/03/10 07:06:26;;;;;;;1.08;0.90;;;;;;;7.59;100.00;98526.88;5027841;28;20395;-65
2023/03/10 07:08:53;;;;;;;0.80;0.80;;;;;;;7.51;100.00;98522.78;5028123;28;20030;-61
2023/03/10 07:11:18;;;;;;;1.70;1.60;;;;;;;7.26;100.00;98524.31;5028983;28;20270;-63
2023/03/10 07:13:43;;;;;;;1.25;1.15;;;;;;;7.17;100.00;98536.00;5027022;28;20022;-65
2023/03/10 07:16:09;;;;;;;1.60;1.50;;;;;;;7.05;100.00;98530.78;5024366;28;20045;-60
2023/03/10 07:18:34;;;;;;;1.50;1.40;;;;;;;7.01;100.00;98527.72;5026450;28;20075;-64
2023/03/10 07:21:00;;;;;;;1.25;1.10;;;;;;;7.02;100.00;98531.28;5028459;28;20084;-64
2023/03/10 07:23:25;;;;;;;1.17;1.08;;;;;;;6.88;100.00;98544.56;5027604;28;20104;-64
2023/03/10 07:25:53;;;;;;;1.00;1.00;;;;;;;6.83;100.00;98550.00;5027588;28;20545;-64
2023/03/10 07:28:18;;;;;;;1.00;1.00;;;;;;;6.83;100.00;98554.63;5027925;28;20037;-62
2023/03/10 07:30:43;;;;;;;1.20;1.10;;;;;;;6.82;100.00;98547.53;5028230;28;20087;-66
2023/03/10 07:33:09;;;;;;;1.15;1.05;;;;;;;6.80;100.00;98546.97;5024777;28;20112;-66
2023/03/10 07:35:35;;;;;;;0.98;0.98;;;;;;;6.74;100.00;98557.84;5027325;28;20395;-66
2023/03/10 07:38:01;;;;;;;1.02;1.00;;;;;;;6.72;100.00;98557.28;5030008;28;20416;-66
2023/03/10 07:40:26;;;;;;;1.30;1.25;;;;;;;6.73;100.00;98553.47;5029575;28;20029;-65
2023/03/10 07:42:53;;;;;;;1.50;1.40;;;;;;;6.78;100.00;98554.59;5026917;28;20046;-64
2023/03/10 07:45:19;;;;;;;1.50;1.40;;;;;;;6.87;100.00;98553.03;5024312;28;20040;-65
2023/03/10 07:47:44;;;;;;;1.52;1.42;;;;;;;6.94;100.00;98561.78;5026195;28;20025;-66
2023/03/10 07:50:10;;;;;;;1.30;1.20;;;;;;;7.07;100.00;98558.59;5027535;28;20079;-65
2023/03/10 07:52:36;;;;;;;1.25;1.15;;;;;;;7.23;100.00;98563.06;5025838;28;20327;-66
2023/03/10 07:55:01;;;;;;;1.27;1.17;;;;;;;7.43;100.00;98561.53;5027073;28;20385;-59
2023/03/10 07:57:27;;;;;;;1.27;1.17;;;;;;;7.63;100.00;98560.78;5027190;28;20040;-66
2023/03/10 07:59:52;;;;;;;1.20;1.10;;;;;;;7.77;100.00;98565.47;5026344;28;20021;-64
2023/03/10 08:02:18;;;;;;;1.10;1.10;;;;;;;7.90;100.00;98550.47;5023628;28;20044;-65
2023/03/10 08:04:43;;;;;;;1.08;1.00;;;;;;;7.96;100.00;98560.34;5023082;28;20025;-64
2023/03/10 08:07:08;;;;;;;1.05;1.00;;;;;;;8.01;100.00;98559.53;5023705;28;20068;-65
2023/03/10 08:09:34;;;;;;;0.80;0.80;;;;;;;8.05;100.00;98558.72;5028308;28;20032;-66
2023/03/10 08:12:00;;;;;;;0.80;0.80;;;;;;;8.17;100.00;98557.66;5028059;28;20029;-64
2023/03/10 08:14:27;;;;;;;0.80;0.80;;;;;;;8.25;100.00;98565.31;5024817;28;20118;-65
2023/03/10 08:16:55;;;;;;;0.83;0.83;;;;;;;8.31;100.00;98565.06;5027914;28;20037;-62
2023/03/10 08:19:21;;;;;;;0.80;0.80;;;;;;;8.42;100.00;98568.66;5025803;28;20403;-66
2023/03/10 08:21:46;;;;;;;0.80;0.80;;;;;;;8.57;100.00;98565.09;5027451;28;20090;-61
2023/03/10 08:24:11;;;;;;;0.80;0.80;;;;;;;8.73;100.00;98566.75;5028361;28;20372;-66
2023/03/10 08:26:36;;;;;;;0.68;0.63;;;;;;;8.94;100.00;98558.50;5023550;28;20066;-66
2023/03/10 08:29:02;;;;;;;0.75;0.75;;;;;;;8.96;100.00;98559.03;5027642;28;20518;-65
2023/03/10 08:31:28;;;;;;;0.75;0.75;;;;;;;9.10;100.00;98562.84;5025508;28;20036;-63
2023/03/10 08:33:57;;;;;;;0.80;0.80;;;;;;;9.24;100.00;98563.09;5025774;28;20075;-64
2023/03/10 08:36:24;;;;;;;0.77;0.77;;;;;;;9.37;100.00;98559.75;5023034;28;20117;-65
2023/03/10 08:38:51;;;;;;;0.80;0.80;;;;;;;9.47;100.00;98567.94;5025135;28;20033;-66
2023/03/10 08:41:18;;;;;;;0.73;0.73;;;;;;;9.52;100.00;98567.94;5013334;28;20154;-65
2023/03/10 08:43:44;;;;;;;0.70;0.70;;;;;;;9.54;100.00;98568.50;5013594;28;20037;-65
2023/03/10 08:46:11;;;;;;;0.60;0.60;;;;;;;9.49;100.00;98565.75;5027229;28;20364;-66
2023/03/10 08:48:37;;;;;;;0.73;0.73;;;;;;;9.49;100.00;98562.22;5018271;28;20036;-64
2023/03/10 08:51:03;;;;;;;0.60;0.60;;;;;;;9.52;100.00;98559.72;5017355;28;20025;-65
2023/03/10 08:53:29;;;;;;;0.80;0.80;;;;;;;9.62;100.00;98565.16;5016873;28;20468;-63
2023/03/10 08:55:54;;;;;;;0.60;0.60;;;;;;;9.73;100.00;98565.09;5014943;28;20148;-64
2023/03/10 08:58:19;;;;;;;0.73;0.70;;;;;;;9.85;100.00;98566.44;5018458;28;20025;-65
2023/03/10 09:00:45;;;;;;;0.70;0.70;;;;;;;9.99;100.00;98566.63;5012268;28;20037;-64
2023/03/10 09:03:10;;;;;;;0.70;0.70;;;;;;;10.17;100.00;98558.84;5011680;28;20026;-65
2023/03/10 09:05:37;;;;;;;0.70;0.70;;;;;;;10.21;100.00;98560.75;5022318;28;20083;-65
2023/03/10 09:08:03;;;;;;;0.70;0.70;;;;;;;10.15;100.00;98559.13;5023108;28;20042;-66
2023/03/10 09:10:28;;;;;;;0.80;0.80;;;;;;;10.06;100.00;98564.38;5021589;28;20555;-65
2023/03/10 09:12:54;;;;;;;0.70;0.70;;;;;;;9.99;100.00;98560.34;5024092;28;20029;-65
2023/03/10 09:15:20;;;;;;;0.70;0.70;;;;;;;9.91;100.00;98558.19;5025009;28;20415;-64
2023/03/10 09:17:46;;;;;;;0.70;0.70;;;;;;;9.79;100.00;98559.34;5023909;28;20121;-66
2023/03/10 09:20:13;;;;;;;0.90;0.80;;;;;;;9.76;100.00;98559.06;5024285;28;20030;-64
2023/03/10 09:22:38;;;;;;;1.05;0.77;;;;;;;9.66;100.00;98553.63;5024445;28;20027;-65
2023/03/10 09:25:04;;;;;;;0.65;0.65;;;;;;;9.58;100.00;98558.63;5024824;28;20100;-65
2023/03/10 09:27:29;;;;;;;0.68;0.68;;;;;;;9.56;100.00;98560.78;5024967;28;20108;-66
2023/03/10 09:29:55;;;;;;;1.00;0.90;;;;;;;9.55;100.00;98559.16;5023928;28;20240;-63
2023/03/10 09:32:20;;;;;;;0.70;0.70;;;;;;;9.60;100.00;98555.59;5023836;28;20575;-65
2023/03/10 09:34:45;;;;;;;0.70;0.70;;;;;;;9.67;100.00;98549.78;5017839;28;20025;-66
2023/03/10 09:37:10;;;;;;;0.70;0.70;;;;;;;9.70;100.00;98554.72;5018050;28;20555;-65
2023/03/10 09:39:36;;;;;;;0.93;0.88;;;;;;;9.69;100.00;98542.94;5020125;28;20112;-66
2023/03/10 09:42:13;;;;;;;0.85;0.70;;;;;;;9.72;100.00;98542.34;5024841;28;20021;-62
2023/03/10 09:44:45;;;;;;;0.70;0.70;;;;;;;9.73;100.00;98546.75;5024511;28;20064;-66
2023/03/10 09:47:32;;;;;;;0.70;0.70;;;;;;;9.72;100.00;98550.59;5024248;28;20403;-66
2023/03/10 09:50:23;;;;;;;0.70;0.70;;;;;;;9.73;100.00;98555.00;5024247;28;20390;-65
2023/03/10 09:53:00;;;;;;;0.70;0.70;;;;;;;9.73;100.00;98555.00;5019448;28;20029;-62
2023/03/10 09:55:35;;;;;;;0.80;0.80;;;;;;;9.74;100.00;98556.63;5020434;28;20025;-65
2023/03/10 09:58:01;;;;;;;0.73;0.73;;;;;;;9.82;100.00;98553.28;5025025;28;20033;-65
2023/03/10 10:00:37;;;;;;;0.73;0.70;;;;;;;9.97;100.00;98559.78;5024404;28;20345;-61
2023/03/10 10:03:12;;;;;;;0.70;0.70;;;;;;;10.04;100.00;98563.06;5023439;28;20735;-66
2023/03/10 10:05:39;;;;;;;0.70;0.70;;;;;;;10.06;100.00;98569.06;5024525;28;20037;-65
2023/03/10 10:08:35;;;;;;;1.20;0.55;;;;;;;10.04;100.00;98572.09;5024348;28;20102;-60
2023/03/10 10:11:02;;;;;;;0.70;0.70;;;;;;;10.02;100.00;98577.03;5011915;28;20041;-65
2023/03/10 10:13:29;;;;;;;0.57;0.57;;;;;;;10.03;100.00;98580.59;5024818;28;20025;-66
2023/03/10 10:16:11;;;;;;;0.60;0.60;;;;;;;9.99;100.00;98583.09;5024315;28;20026;-63
2023/03/10 10:18:45;;;;;;;0.50;0.50;;;;;;;9.96;100.00;98578.16;5023621;28;20029;-65
2023/03/10 10:21:21;;;;;;;0.60;0.60;;;;;;;9.91;100.00;98583.66;5023911;28;20021;-63
2023/03/10 10:23:51;;;;;;;0.55;0.55;;;;;;;9.92;100.00;98579.00;5024445;28;20030;-65
2023/03/10 10:26:18;;;;;;;0.52;0.52;;;;;;;9.92;100.00;98579.00;5023177;28;20391;-64
2023/03/10 10:28:54;;;;;;;0.70;0.70;;;;;;;9.93;100.00;98583.38;5003957;28;20026;-63
2023/03/10 10:31:23;;;;;;;0.57;0.57;;;;;;;9.94;100.00;98583.13;5004800;28;20014;-64
2023/03/10 10:34:15;;;;;;;0.60;0.60;;;;;;;9.98;100.00;98588.84;5003720;28;20109;-64
2023/03/10 10:36:53;;;;;;;0.70;0.70;;;;;;;9.87;100.00;98588.06;5006753;28;20030;-63
2023/03/10 10:39:26;;;;;;;0.68;0.68;;;;;;;9.79;100.00;98592.22;5023991;28;20387;-65
2023/03/10 10:41:51;;;;;;;0.63;0.63;;;;;;;9.83;100.00;98595.22;5023890;28;20060;-65
2023/03/10 10:44:18;;;;;;;0.70;0.70;;;;;;;9.74;100.00;98589.50;5021583;28;20088;-64
2023/03/10 10:46:52;;;;;;;0.60;0.60;;;;;;;9.74;100.00;98589.50;5020553;28;20030;-66
2023/03/10 10:49:27;;;;;;;0.80;0.80;;;;;;;9.71;100.00;98583.75;5023770;28;20037;-65
2023/03/10 10:52:01;;;;;;;0.70;0.70;;;;;;;9.59;100.00;98584.91;5025011;28;20025;-63
2023/03/10 10:54:39;;;;;;;0.95;0.70;;;;;;;9.48;100.00;98587.94;5029239;28;20026;-61
2023/03/10 10:57:17;;;;;;;0.60;0.60;;;;;;;9.44;100.00;98576.75;5028756;28;20044;-63
2023/03/10 10:59:42;;;;;;;0.68;0.68;;;;;;;9.34;100.00;98585.81;5009140;28;20022;-64
2023/03/10 11:02:33;;;;;;;0.70;0.70;;;;;;;9.31;100.00;98586.34;5025274;28;20033;-61
2023/03/10 11:05:10;;;;;;;0.60;0.60;;;;;;;9.32;100.00;98581.69;5030232;28;20026;-64
2023/03/10 11:07:35;;;;;;;0.50;0.50;;;;;;;9.36;100.00;98569.09;5026168;28;20113;-62
2023/03/10 11:10:01;;;;;;;0.80;0.80;;;;;;;9.46;100.00;98576.44;5030304;28;20144;-63
2023/03/10 11:12:45;;;;;;;0.70;0.70;;;;;;;9.54;100.00;98575.88;5030018;28;20032;-63
2023/03/10 11:15:21;;;;;;;0.60;0.60;;;;;;;9.62;100.00;98564.34;5018647;28;20034;-61
2023/03/10 11:17:55;;;;;;;0.75;0.75;;;;;;;9.65;100.00;98572.00;5026673;28;20083;-63
2023/03/10 11:20:35;;;;;;;0.68;0.68;;;;;;;9.63;100.00;98566.00;5029842;28;20111;-63
2023/03/10 11:23:17;;;;;;;0.50;0.50;;;;;;;9.59;100.00;98563.00;5028893;28;20112;-64
2023/03/10 11:25:53;;;;;;;0.63;0.63;;;;;;;9.60;100.00;98556.41;5029121;28;20040;-64
2023/03/10 11:28:38;;;;;;;0.70;0.70;;;;;;;9.58;100.00;98558.63;5029042;28;20030;-64
2023/03/10 11:31:14;;;;;;;0.70;0.70;;;;;;;9.54;100.00;98559.44;5029275;28;20065;-63
2023/03/10 11:34:05;;;;;;;0.60;0.60;;;;;;;9.49;100.00;98546.59;5027208;28;20056;-64
2023/03/10 11:37:08;;;;;;;0.50;0.50;;;;;;;9.49;100.00;98548.50;5027767;28;20024;-64
2023/03/10 11:39:40;;;;;;;0.60;0.60;;;;;;;9.42;100.00;98534.28;5024362;28;20179;-62
2023/03/10 11:42:20;;;;;;;0.65;0.65;;;;;;;9.38;100.00;98533.19;5028802;28;20036;-63
2023/03/10 11:44:51;;;;;;;0.60;0.60;;;;;;;9.38;100.00;98519.50;5027445;28;20084;-63
2023/03/10 11:47:36;;;;;;;0.70;0.70;;;;;;;9.33;100.00;98523.91;5028352;28;20449;-63
2023/03/10 11:50:16;;;;;;;0.60;0.60;;;;;;;9.24;100.00;98528.31;5029034;28;20687;-61
2023/03/10 11:52:43;;;;;;;0.60;0.60;;;;;;;9.23;100.00;98529.41;5028176;28;20021;-61
2023/03/10 11:55:20;;;;;;;0.50;0.50;;;;;;;9.25;100.00;98518.19;5028693;28;20029;-63
2023/03/10 11:57:51;;;;;;;0.50;0.50;;;;;;;9.21;100.00;98515.16;5023291;28;20033;-63